createdAt,value
2022-10-19T00:01:21.551Z,78894.72
2022-10-19T00:03:54.467Z,78890.25
2022-10-19T00:06:28.226Z,78902.81
2022-10-19T00:08:59.349Z,78884.31
2022-10-19T00:11:30.186Z,78866.03
2022-10-19T00:14:00.331Z,78903.50
2022-10-19T00:16:34.923Z,78906.81
2022-10-19T00:19:08.453Z,78894.88
2022-10-19T00:21:40.129Z,78889.66
2022-10-19T00:24:09.964Z,78883.00
2022-10-19T00:26:38.574Z,78888.25
2022-10-19T00:29:09.438Z,78892.28
2022-10-19T00:31:38.257Z,78903.50
2022-10-19T00:34:08.318Z,78904.78
2022-10-19T00:36:41.139Z,78900.78
2022-10-19T00:39:16.516Z,78910.72
2022-10-19T00:41:48.296Z,78914.13
2022-10-19T00:44:17.133Z,78907.47
2022-10-19T00:46:49.651Z,78908.81
2022-10-19T00:49:34.750Z,78888.34
2022-10-19T00:52:07.921Z,78916.16
2022-10-19T00:54:40.003Z,78906.28
2022-10-19T00:57:10.131Z,78915.41
2022-10-19T00:59:41.157Z,78917.47
2022-10-19T01:02:13.795Z,78898.88
2022-10-19T01:04:49.724Z,78895.50
2022-10-19T01:07:19.798Z,78891.66
2022-10-19T01:09:49.679Z,78912.81
2022-10-19T01:12:47.355Z,78926.63
2022-10-19T01:15:17.326Z,78926.03
2022-10-19T01:18:09.847Z,78916.25
2022-10-19T01:20:48.848Z,78922.16
2022-10-19T01:23:21.869Z,78930.09
2022-10-19T01:26:10.256Z,78928.06
2022-10-19T01:28:49.062Z,78929.34
2022-10-19T01:31:39.535Z,78937.25
2022-10-19T01:34:50.148Z,78924.59
2022-10-19T01:37:26.089Z,78932.28
2022-10-19T01:40:16.650Z,78927.47
2022-10-19T01:43:09.222Z,78938.47
2022-10-19T01:45:58.867Z,78938.75
2022-10-19T01:48:32.583Z,78920.00
2022-10-19T01:51:20.769Z,78930.38
2022-10-19T01:53:55.207Z,78932.75
2022-10-19T01:56:30.079Z,78944.31
2022-10-19T01:59:03.038Z,78938.50
2022-10-19T02:01:38.137Z,78939.16
2022-10-19T02:04:08.488Z,78928.13
2022-10-19T02:06:38.864Z,78938.75
2022-10-19T02:09:09.352Z,78935.31
2022-10-19T02:11:41.834Z,78939.94
2022-10-19T02:14:17.671Z,78933.41
2022-10-19T02:17:16.568Z,78940.66
2022-10-19T02:19:46.572Z,78944.13
2022-10-19T02:22:15.612Z,78954.53
2022-10-19T02:24:45.477Z,78952.00
2022-10-19T02:27:16.195Z,78955.19
2022-10-19T02:29:46.353Z,78967.72
2022-10-19T02:32:16.577Z,78954.66
2022-10-19T02:34:46.505Z,78976.19
2022-10-19T02:37:15.649Z,78965.19
2022-10-19T02:39:45.806Z,78964.94
2022-10-19T02:42:40.671Z,78954.53
2022-10-19T02:45:22.495Z,78965.75
2022-10-19T02:47:56.429Z,78970.13
2022-10-19T02:50:27.082Z,78973.25
2022-10-19T02:52:56.915Z,78977.44
2022-10-19T02:55:26.971Z,78975.06
2022-10-19T02:57:56.409Z,78975.78
2022-10-19T03:00:28.823Z,78988.59
2022-10-19T03:02:59.071Z,78978.00
2022-10-19T03:05:31.458Z,78975.84
2022-10-19T03:08:02.102Z,78991.97
2022-10-19T03:10:32.216Z,78991.44
2022-10-19T03:13:02.680Z,78978.94
2022-10-19T03:15:32.835Z,79001.25
2022-10-19T03:18:02.679Z,78996.28
2022-10-19T03:20:33.467Z,78994.56
2022-10-19T03:23:03.741Z,79001.53
2022-10-19T03:25:32.768Z,79006.41
2022-10-19T03:28:02.651Z,79018.34
2022-10-19T03:30:33.327Z,79014.00
2022-10-19T03:33:03.569Z,79006.72
2022-10-19T03:35:36.763Z,79021.97
2022-10-19T03:38:06.904Z,79011.22
2022-10-19T03:40:36.342Z,79025.81
2022-10-19T03:43:06.414Z,79036.81
2022-10-19T03:45:36.720Z,79011.41
2022-10-19T03:48:09.472Z,79037.31
2022-10-19T03:50:38.503Z,79025.81
2022-10-19T03:53:08.738Z,79034.16
2022-10-19T03:55:38.858Z,79047.56
2022-10-19T03:58:08.913Z,79048.72
2022-10-19T04:00:38.259Z,79043.88
2022-10-19T04:03:08.172Z,79013.41
2022-10-19T04:05:38.608Z,79045.28
2022-10-19T04:08:09.402Z,79048.28
2022-10-19T04:10:45.755Z,79059.81
2022-10-19T04:13:15.914Z,79038.66
2022-10-19T04:15:46.493Z,79045.31
2022-10-19T04:18:20.115Z,79065.00
2022-10-19T04:20:50.418Z,79043.06
2022-10-19T04:23:20.929Z,79033.19
2022-10-19T04:25:51.194Z,79064.84
2022-10-19T04:28:20.181Z,79074.09
2022-10-19T04:30:52.949Z,79064.53
2022-10-19T04:33:23.386Z,79071.94
2022-10-19T04:35:59.918Z,79063.19
2022-10-19T04:38:31.697Z,79080.94
2022-10-19T04:41:06.644Z,79078.31
2022-10-19T04:43:37.075Z,79067.84
2022-10-19T04:46:19.416Z,79075.47
2022-10-19T04:48:50.993Z,79072.84
2022-10-19T04:51:24.841Z,79067.28
2022-10-19T04:53:57.002Z,79082.44
2022-10-19T04:56:33.594Z,79067.13
2022-10-19T04:59:04.413Z,79081.94
2022-10-19T05:01:34.904Z,79056.69
2022-10-19T05:04:05.678Z,79084.88
2022-10-19T05:06:35.978Z,79077.94
2022-10-19T05:09:09.476Z,79089.47
2022-10-19T05:11:39.825Z,79077.13
2022-10-19T05:14:11.031Z,79089.19
2022-10-19T05:16:41.137Z,79079.81
2022-10-19T05:19:16.721Z,79091.63
2022-10-19T05:21:45.943Z,79082.41
2022-10-19T05:24:15.942Z,79054.84
2022-10-19T05:26:46.094Z,79086.97
2022-10-19T05:29:16.872Z,79059.50
2022-10-19T05:31:46.102Z,79076.84
2022-10-19T05:34:15.323Z,79070.44
2022-10-19T05:36:45.804Z,79090.44
2022-10-19T05:39:27.277Z,79083.63
2022-10-19T05:41:57.657Z,79079.47
2022-10-19T05:44:27.847Z,79090.47
2022-10-19T05:46:58.268Z,79063.72
2022-10-19T05:49:31.419Z,79087.69
2022-10-19T05:52:01.476Z,79095.22
2022-10-19T05:54:30.562Z,79091.81
2022-10-19T05:56:59.453Z,79094.97
2022-10-19T05:59:29.543Z,79082.78
2022-10-19T06:02:00.539Z,79086.50
2022-10-19T06:04:30.667Z,79070.03
2022-10-19T06:07:00.528Z,79071.03
2022-10-19T06:09:33.516Z,79085.25
2022-10-19T06:12:17.917Z,79075.78
2022-10-19T06:14:52.869Z,79065.34
2022-10-19T06:17:25.903Z,79057.56
2022-10-19T06:19:56.281Z,79055.50
2022-10-19T06:22:26.399Z,79068.69
2022-10-19T06:24:55.385Z,79075.25
2022-10-19T06:27:25.423Z,79074.69
2022-10-19T06:29:56.025Z,79054.72
2022-10-19T06:32:28.771Z,79005.09
2022-10-19T06:34:59.270Z,79065.56
2022-10-19T06:37:29.311Z,79057.13
2022-10-19T06:40:06.917Z,79065.75
2022-10-19T06:42:44.417Z,79058.81
2022-10-19T06:45:16.813Z,79003.50
2022-10-19T06:50:23.764Z,79048.44
2022-10-19T06:52:59.877Z,79062.88
2022-10-19T06:55:33.376Z,79044.81
2022-10-19T06:58:03.082Z,79039.59
2022-10-19T07:00:33.773Z,79056.44
2022-10-19T07:03:02.983Z,79044.66
2022-10-19T07:05:32.846Z,79046.53
2022-10-19T07:08:03.032Z,79024.16
2022-10-19T07:10:35.912Z,79025.81
2022-10-19T07:13:06.360Z,79044.69
2022-10-19T07:15:39.807Z,79035.59
2022-10-19T07:18:09.805Z,79027.59
2022-10-19T07:20:38.479Z,79033.56
2022-10-19T07:23:07.801Z,79018.69
2022-10-19T07:25:38.743Z,79021.78
2022-10-19T07:28:07.697Z,79011.56
2022-10-19T07:30:39.805Z,79024.41
2022-10-19T07:33:08.567Z,79016.88
2022-10-19T07:35:38.182Z,79014.94
2022-10-19T07:38:07.156Z,79013.81
2022-10-19T07:40:36.840Z,79016.31
2022-10-19T07:43:06.466Z,79011.47
2022-10-19T07:45:35.098Z,79005.56
2022-10-19T07:48:03.934Z,78973.34
2022-10-19T07:50:32.746Z,78986.22
2022-10-19T07:53:03.640Z,78994.53
2022-10-19T07:55:35.431Z,79007.13
2022-10-19T07:58:04.129Z,79005.06
2022-10-19T08:00:32.706Z,78964.44
2022-10-19T08:03:31.681Z,78988.59
2022-10-19T08:05:50.643Z,78999.69
2022-10-19T08:08:19.357Z,78989.72
2022-10-19T08:10:48.140Z,78966.94
2022-10-19T08:13:17.386Z,78985.66
2022-10-19T08:15:46.296Z,78972.50
2022-10-19T08:18:14.978Z,78982.66
2022-10-19T08:20:45.124Z,78968.88
2022-10-19T08:23:13.658Z,78929.25
2022-10-19T08:25:42.259Z,78972.94
2022-10-19T08:28:11.295Z,78956.75
2022-10-19T08:30:39.996Z,78935.81
2022-10-19T08:33:09.300Z,78953.03
2022-10-19T08:35:38.672Z,78944.84
2022-10-19T08:38:07.329Z,78947.91
2022-10-19T08:40:36.742Z,78931.31
2022-10-19T08:43:17.146Z,78932.50
2022-10-19T08:46:24.268Z,78933.88
2022-10-19T08:48:54.041Z,78926.13
2022-10-19T08:51:22.691Z,78928.50
2022-10-19T08:53:58.652Z,78917.03
2022-10-19T08:57:09.549Z,78914.00
2022-10-19T09:00:08.307Z,78913.84
2022-10-19T09:03:04.350Z,78913.09
2022-10-19T09:05:43.556Z,78885.97
2022-10-19T09:08:17.735Z,78918.16
2022-10-19T09:10:51.111Z,78909.41
2022-10-19T09:14:03.847Z,78907.31
2022-10-19T09:16:32.181Z,78896.34
2022-10-19T09:19:00.732Z,78882.59
2022-10-19T09:21:48.195Z,78898.63
2022-10-19T09:24:45.483Z,78890.63
2022-10-19T09:27:32.502Z,78897.06
2022-10-19T09:30:07.728Z,78898.41
2022-10-19T09:32:39.743Z,78886.34
2022-10-19T09:35:36.655Z,78880.38
2022-10-19T09:38:08.738Z,78876.44
2022-10-19T09:40:37.682Z,78892.63
2022-10-19T09:43:20.979Z,78876.41
2022-10-19T09:46:21.488Z,78878.38
2022-10-19T09:48:53.223Z,78880.97
2022-10-19T09:51:24.589Z,78864.31
2022-10-19T09:53:56.003Z,78869.09
2022-10-19T09:56:27.759Z,78847.41
2022-10-19T09:58:59.161Z,78882.78
2022-10-19T10:01:41.613Z,78872.94
2022-10-19T10:04:19.924Z,78874.84
2022-10-19T10:06:49.630Z,78874.63
2022-10-19T10:09:27.529Z,78864.28
2022-10-19T10:12:00.408Z,78874.88
2022-10-19T10:14:35.863Z,78862.13
2022-10-19T10:17:13.385Z,78864.94
2022-10-19T10:19:53.182Z,78865.03
2022-10-19T10:22:58.191Z,78861.34
2022-10-19T10:25:33.743Z,78861.59
2022-10-19T10:28:22.616Z,78854.91
2022-10-19T10:31:06.091Z,78858.88
2022-10-19T10:33:46.252Z,78860.94
2022-10-19T10:36:15.556Z,78841.38
2022-10-19T10:38:53.093Z,78829.16
2022-10-19T10:41:25.058Z,78829.72
2022-10-19T10:44:05.254Z,78843.66
2022-10-19T10:46:38.024Z,78865.28
2022-10-19T10:49:09.074Z,78807.53
2022-10-19T10:51:50.735Z,78841.03
2022-10-19T10:54:22.660Z,78843.06
2022-10-19T10:57:06.615Z,78857.78
2022-10-19T10:59:52.659Z,78863.53
2022-10-19T11:02:33.780Z,78862.69
2022-10-19T11:05:30.654Z,78847.94
2022-10-19T11:08:06.482Z,78856.66
2022-10-19T11:10:40.822Z,78862.44
2022-10-19T11:13:13.109Z,78863.25
2022-10-19T11:15:54.293Z,78861.94
2022-10-19T11:18:52.020Z,78858.69
2022-10-19T11:21:51.694Z,78868.09
2022-10-19T11:24:48.856Z,78865.88
2022-10-19T11:27:59.228Z,78860.16
2022-10-19T11:30:28.577Z,78838.06
2022-10-19T11:33:06.843Z,78861.81
2022-10-19T11:35:40.420Z,78833.50
2022-10-19T11:38:29.636Z,78860.09
2022-10-19T11:41:18.282Z,78868.56
2022-10-19T11:43:56.402Z,78865.13
2022-10-19T11:46:25.154Z,78865.44
2022-10-19T11:49:11.053Z,78835.19
2022-10-19T11:52:00.980Z,78859.06
2022-10-19T11:54:59.400Z,78862.59
2022-10-19T11:58:04.182Z,78869.81
2022-10-19T12:00:48.663Z,78860.59
2022-10-19T12:03:27.849Z,78878.34
2022-10-19T12:06:17.594Z,78877.28
2022-10-19T12:09:00.859Z,78873.88
2022-10-19T12:11:50.968Z,78877.03
2022-10-19T12:14:26.545Z,78867.59
2022-10-19T12:17:01.182Z,78872.59
2022-10-19T12:19:43.860Z,78875.06
2022-10-19T12:22:21.394Z,78872.56
2022-10-19T12:24:52.737Z,78840.78
2022-10-19T12:27:31.928Z,78860.75
2022-10-19T12:30:10.338Z,78874.47
2022-10-19T12:32:53.466Z,78852.56
2022-10-19T12:36:16.222Z,78874.25
2022-10-19T12:38:50.814Z,78877.44
2022-10-19T12:41:38.478Z,78878.44
2022-10-19T12:44:16.060Z,78882.66
2022-10-19T12:46:53.016Z,78880.84
2022-10-19T12:49:37.388Z,78885.09
2022-10-19T12:52:11.994Z,78876.13
2022-10-19T12:54:43.706Z,78834.84
2022-10-19T12:57:28.937Z,78898.91
2022-10-19T13:00:08.310Z,78880.34
2022-10-19T13:02:40.141Z,78888.31
2022-10-19T13:05:09.410Z,78890.59
2022-10-19T13:07:38.713Z,78888.53
2022-10-19T13:10:21.232Z,78889.19
2022-10-19T13:12:50.801Z,78904.34
2022-10-19T13:15:35.772Z,78905.72
2022-10-19T13:18:12.823Z,78913.00
2022-10-19T13:20:42.346Z,78913.00
2022-10-19T13:23:11.009Z,78914.25
2022-10-19T13:25:41.150Z,78909.06
2022-10-19T13:28:18.676Z,78914.78
2022-10-19T13:30:48.262Z,78909.38
2022-10-19T13:33:35.865Z,78911.00
2022-10-19T13:36:12.291Z,78914.28
2022-10-19T13:39:06.916Z,78910.31
2022-10-19T13:41:36.102Z,78921.03
2022-10-19T13:44:07.742Z,78922.91
2022-10-19T13:47:13.560Z,78901.31
2022-10-19T13:49:57.320Z,78923.56
2022-10-19T13:52:46.367Z,78921.91
2022-10-19T13:55:52.653Z,78925.50
2022-10-19T13:58:43.381Z,78932.72
2022-10-19T14:01:23.781Z,78916.03
2022-10-19T14:04:16.578Z,78889.66
2022-10-19T14:06:54.585Z,78923.28
2022-10-19T14:09:37.920Z,78912.06
2022-10-19T14:12:29.769Z,78915.84
2022-10-19T14:14:59.257Z,78896.25
2022-10-19T14:17:34.812Z,78925.84
2022-10-19T14:20:05.119Z,78919.41
2022-10-19T14:22:35.033Z,78930.47
2022-10-19T14:25:07.018Z,78927.19
2022-10-19T14:27:36.690Z,78918.59
2022-10-19T14:30:06.717Z,78910.97
2022-10-19T14:32:36.614Z,78940.44
2022-10-19T14:35:19.081Z,78920.63
2022-10-19T14:37:48.850Z,78936.72
2022-10-19T14:40:28.909Z,78940.97
2022-10-19T14:43:00.743Z,78937.59
2022-10-19T14:45:34.111Z,78947.66
2022-10-19T14:48:06.325Z,78944.25
2022-10-19T14:53:31.909Z,78940.09
2022-10-19T14:56:08.070Z,78948.84
2022-10-19T14:58:55.569Z,78938.13
2022-10-19T15:01:24.657Z,78914.28
2022-10-19T15:03:54.110Z,78945.19
2022-10-19T15:06:31.865Z,78946.91
2022-10-19T15:09:15.379Z,78938.22
2022-10-19T15:11:55.257Z,78924.72
2022-10-19T15:14:29.641Z,78945.88
2022-10-19T15:17:03.845Z,78941.59
2022-10-19T15:19:39.958Z,78917.16
2022-10-19T15:22:32.422Z,78932.00
2022-10-19T15:25:07.301Z,78946.88
2022-10-19T15:27:38.931Z,78927.97
2022-10-19T15:30:32.753Z,78942.00
2022-10-19T15:33:02.794Z,78948.84
2022-10-19T15:35:34.990Z,78946.03
2022-10-19T15:38:28.266Z,78938.72
2022-10-19T15:41:05.847Z,78948.44
2022-10-19T15:43:56.061Z,78931.22
2022-10-19T15:46:35.531Z,78921.53
2022-10-19T15:49:19.371Z,78921.69
2022-10-19T15:51:50.428Z,78883.75
2022-10-19T15:54:20.505Z,78885.63
2022-10-19T15:56:54.262Z,78888.13
2022-10-19T15:59:24.971Z,78888.63
2022-10-19T16:01:56.135Z,78847.81
2022-10-19T16:04:25.674Z,78853.88
2022-10-19T16:06:54.540Z,78826.75
2022-10-19T16:09:23.669Z,78827.88
2022-10-19T16:11:57.602Z,78840.19
2022-10-19T16:14:33.050Z,78831.50
2022-10-19T16:17:06.162Z,78847.25
2022-10-19T16:19:34.939Z,78825.53
2022-10-19T16:22:03.962Z,78819.03
2022-10-19T16:24:33.289Z,78798.84
2022-10-19T16:27:02.648Z,78820.13
2022-10-19T16:29:31.446Z,78829.34
2022-10-19T16:32:00.959Z,78826.94
2022-10-19T16:34:29.789Z,78806.00
2022-10-19T16:37:02.594Z,78812.06
2022-10-19T16:39:34.993Z,78818.63
2022-10-19T16:42:03.663Z,78800.03
2022-10-19T16:44:35.343Z,78811.84
2022-10-19T16:47:05.943Z,78825.97
2022-10-19T16:49:34.979Z,78835.41
2022-10-19T16:52:03.759Z,78849.19
2022-10-19T16:54:33.923Z,78815.66
2022-10-19T16:57:07.127Z,78822.28
2022-10-19T16:59:38.904Z,78860.41
2022-10-19T17:02:08.253Z,78850.16
2022-10-19T17:04:37.785Z,78888.50
2022-10-19T17:07:08.788Z,78860.00
2022-10-19T17:09:41.752Z,78868.16
2022-10-19T17:12:11.744Z,78893.91
2022-10-19T17:14:42.458Z,78911.19
2022-10-19T17:17:13.541Z,78913.88
2022-10-19T17:19:43.363Z,78899.72
2022-10-19T17:22:12.076Z,78913.66
2022-10-19T17:24:41.944Z,78920.84
2022-10-19T17:27:11.122Z,78891.06
2022-10-19T17:29:40.096Z,78923.19
2022-10-19T17:32:09.984Z,78949.25
2022-10-19T17:34:39.020Z,78932.13
2022-10-19T17:37:08.333Z,78917.88
2022-10-19T17:39:37.762Z,78884.50
2022-10-19T17:42:06.627Z,78934.66
2022-10-19T17:44:35.821Z,78933.97
2022-10-19T17:47:04.976Z,78933.56
2022-10-19T17:49:34.033Z,78899.81
2022-10-19T17:52:02.834Z,78930.78
2022-10-19T17:54:39.614Z,78895.34
2022-10-19T17:57:17.656Z,78890.78
2022-10-19T17:59:52.797Z,78899.44
2022-10-19T18:02:22.524Z,78912.00
2022-10-19T18:04:51.825Z,78903.19
2022-10-19T18:07:23.132Z,78927.13
2022-10-19T18:09:52.118Z,78943.84
2022-10-19T18:12:20.821Z,78931.94
2022-10-19T18:14:49.776Z,78933.50
2022-10-19T18:17:18.500Z,78911.34
2022-10-19T18:19:47.711Z,78938.97
2022-10-19T18:22:16.903Z,78938.47
2022-10-19T18:24:46.105Z,78919.53
2022-10-19T18:27:14.986Z,78900.63
2022-10-19T18:29:44.030Z,78950.28
2022-10-19T18:32:14.753Z,78934.56
2022-10-19T18:34:44.502Z,78929.34
2022-10-19T18:37:13.223Z,78926.81
2022-10-19T18:39:42.885Z,78942.13
2022-10-19T18:42:13.621Z,78945.53
2022-10-19T18:44:43.071Z,78942.88
2022-10-19T18:47:13.198Z,78946.94
2022-10-19T18:49:42.151Z,78965.56
2022-10-19T18:52:10.814Z,78975.50
2022-10-19T18:54:40.109Z,78983.56
2022-10-19T18:57:08.786Z,78944.59
2022-10-19T18:59:38.538Z,78974.34
2022-10-19T19:02:13.645Z,78945.28
2022-10-19T19:04:52.043Z,78959.25
2022-10-19T19:07:21.181Z,78967.78
2022-10-19T19:09:52.444Z,78977.69
2022-10-19T19:12:23.854Z,78987.72
2022-10-19T19:14:52.902Z,79005.59
2022-10-19T19:17:21.831Z,79026.13
2022-10-19T19:19:50.723Z,79004.31
2022-10-19T19:22:19.413Z,79008.28
2022-10-19T19:24:51.363Z,79021.50
2022-10-19T19:27:26.161Z,78993.75
2022-10-19T19:29:59.998Z,78962.00
2022-10-19T19:32:28.975Z,78946.16
2022-10-19T19:34:57.694Z,78977.13
2022-10-19T19:37:27.088Z,78993.06
2022-10-19T19:39:55.769Z,78975.22
2022-10-19T19:42:27.781Z,78964.59
2022-10-19T19:44:57.437Z,78964.47
2022-10-19T19:47:26.211Z,78953.94
2022-10-19T19:49:55.103Z,78973.78
2022-10-19T19:52:24.160Z,78979.09
2022-10-19T19:54:53.878Z,78959.81
2022-10-19T19:57:23.441Z,78900.88
2022-10-19T19:59:52.841Z,78875.69
2022-10-19T20:02:22.175Z,78853.91
2022-10-19T20:04:51.563Z,78848.53
2022-10-19T20:07:20.353Z,78839.22
2022-10-19T20:09:49.787Z,78820.09
2022-10-19T20:12:18.886Z,78814.06
2022-10-19T20:14:47.794Z,78847.16
2022-10-19T20:17:17.753Z,78849.75
2022-10-19T20:19:47.119Z,78845.78
2022-10-19T20:22:17.194Z,78824.06
2022-10-19T20:24:47.244Z,78830.66
2022-10-19T20:27:15.994Z,78853.78
2022-10-19T20:29:45.615Z,78830.75
2022-10-19T20:32:14.361Z,78822.88
2022-10-19T20:34:43.417Z,78850.56
2022-10-19T20:37:12.309Z,78844.59
2022-10-19T20:39:41.324Z,78840.09
2022-10-19T20:42:09.989Z,78851.97
2022-10-19T20:44:39.810Z,78844.06
2022-10-19T20:47:08.581Z,78855.97
2022-10-19T20:49:37.914Z,78870.56
2022-10-19T20:52:06.673Z,78822.38
2022-10-19T20:54:36.755Z,78815.81
2022-10-19T20:57:05.455Z,78833.56
2022-10-19T20:59:34.401Z,78846.88
2022-10-19T21:02:03.326Z,78833.63
2022-10-19T21:04:32.233Z,78820.44
2022-10-19T21:07:02.001Z,78834.94
2022-10-19T21:09:31.035Z,78802.00
2022-10-19T21:12:00.108Z,78818.38
2022-10-19T21:14:30.931Z,78819.72
2022-10-19T21:17:00.924Z,78800.63
2022-10-19T21:19:31.817Z,78818.41
2022-10-19T21:22:03.082Z,78805.88
2022-10-19T21:24:35.070Z,78823.00
2022-10-19T21:27:06.806Z,78815.75
2022-10-19T21:29:37.169Z,78830.31
2022-10-19T21:32:08.519Z,78819.75
2022-10-19T21:34:37.757Z,78826.94
2022-10-19T21:37:06.418Z,78788.09
2022-10-19T21:39:35.296Z,78810.47
2022-10-19T21:42:04.109Z,78807.19
2022-10-19T21:44:33.766Z,78821.69
2022-10-19T21:47:02.582Z,78808.50
2022-10-19T21:49:31.519Z,78825.78
2022-10-19T21:52:00.247Z,78817.16
2022-10-19T21:54:30.251Z,78784.25
2022-10-19T21:57:01.346Z,78802.69
2022-10-19T21:59:30.517Z,78817.25
2022-10-19T22:02:00.657Z,78827.13
2022-10-19T22:04:30.886Z,78835.16
2022-10-19T22:07:01.516Z,78823.28
2022-10-19T22:09:30.489Z,78820.56
2022-10-19T22:11:59.445Z,78824.50
2022-10-19T22:14:28.588Z,78827.22
2022-10-19T22:16:57.430Z,78822.63
2022-10-19T22:19:27.242Z,78841.75
2022-10-19T22:21:56.056Z,78841.03
2022-10-19T22:24:24.895Z,78860.25
2022-10-19T22:26:53.972Z,78871.44
2022-10-19T22:29:23.777Z,78859.56
2022-10-19T22:31:52.513Z,78846.47
2022-10-19T22:34:21.875Z,78837.19
2022-10-19T22:36:50.646Z,78830.53
2022-10-19T22:39:19.684Z,78787.00
2022-10-19T22:41:48.568Z,78814.66
2022-10-19T22:44:17.424Z,78825.19
2022-10-19T22:46:46.101Z,78814.00
2022-10-19T22:49:15.114Z,78822.63
2022-10-19T22:51:44.171Z,78806.16
2022-10-19T22:54:13.137Z,78788.38
2022-10-19T22:56:42.302Z,78796.97
2022-10-19T22:59:11.546Z,78816.09
2022-10-19T23:01:40.325Z,78818.69
2022-10-19T23:04:09.407Z,78825.94
2022-10-19T23:06:38.319Z,78825.94
2022-10-19T23:09:09.629Z,78799.50
2022-10-19T23:11:38.469Z,78805.44
2022-10-19T23:14:07.138Z,78817.31
2022-10-19T23:16:36.239Z,78843.69
2022-10-19T23:19:05.390Z,78846.31
2022-10-19T23:21:37.321Z,78833.09
2022-10-19T23:24:06.941Z,78831.84
2022-10-19T23:26:35.863Z,78845.09
2022-10-19T23:29:04.896Z,78845.16
2022-10-19T23:31:34.717Z,78864.31
2022-10-19T23:34:03.790Z,78867.00
2022-10-19T23:36:32.510Z,78867.66
2022-10-19T23:39:01.933Z,78845.91
2022-10-19T23:41:30.668Z,78857.78
2022-10-19T23:43:59.519Z,78836.00
2022-10-19T23:46:28.265Z,78867.00
2022-10-19T23:48:57.219Z,78874.91
2022-10-19T23:51:25.937Z,78881.53
2022-10-19T23:53:55.274Z,78861.72
2022-10-19T23:56:27.481Z,78859.09
2022-10-19T23:58:57.791Z,78855.78
